Time;durP1;ratioP1;P1;durP2;ratioP2;P2;SDS_P1;SDS_P2;PMS_P1;PMS_P2;Temp;Humidity;BMP_temperature;BMP_pressure;BME280_temperature;BME280_humidity;BME280_pressure;Samples;Min_cycle;Max_cycle;Signal;HPM_P1;HPM_P2
2023/02/06 00:00:48;;;;;;;37.60;16.80;;;;;;;2.07;98.71;103270.85;107727;1256;70764;-76
2023/02/06 00:03:15;;;;;;;34.10;15.80;;;;;;;2.06;98.68;103277.84;108053;1253;60886;-74
2023/02/06 00:05:42;;;;;;;37.10;16.10;;;;;;;2.07;98.90;103279.38;107890;1253;59551;-80
2023/02/06 00:08:10;;;;;;;36.70;17.10;;;;;;;2.07;98.95;103273.80;107615;1253;73250;-76
2023/02/06 00:10:37;;;;;;;38.50;17.00;;;;;;;2.11;98.94;103266.67;107490;1252;69571;-76
2023/02/06 00:13:04;;;;;;;38.10;16.30;;;;;;;2.16;98.99;103266.33;107778;1252;71222;-77
2023/02/06 00:15:32;;;;;;;35.20;16.20;;;;;;;2.18;99.03;103264.82;107758;1254;61019;-75
2023/02/06 00:17:59;;;;;;;34.00;16.00;;;;;;;2.19;99.12;103264.61;107660;1252;59628;-75
2023/02/06 00:20:26;;;;;;;34.50;16.30;;;;;;;2.18;98.87;103262.95;107586;1253;72374;-74
2023/02/06 00:22:53;;;;;;;34.30;16.60;;;;;;;2.17;99.18;103260.00;107637;1253;71153;-74
2023/02/06 00:25:20;;;;;;;33.90;16.30;;;;;;;2.17;98.82;103256.32;107805;1254;72260;-75
2023/02/06 00:27:47;;;;;;;36.60;15.80;;;;;;;2.19;98.98;103260.23;107719;1256;60053;-77
2023/02/06 00:30:17;;;;;;;33.20;15.60;;;;;;;2.18;99.18;103267.29;107549;1257;59625;-75
2023/02/06 00:32:44;;;;;;;33.00;15.10;;;;;;;2.17;99.07;103264.20;107724;1254;72794;-74
2023/02/06 00:35:11;;;;;;;37.60;15.40;;;;;;;2.14;99.01;103262.03;107920;1253;70455;-75
2023/02/06 00:37:38;;;;;;;30.80;13.90;;;;;;;2.12;99.28;103260.86;107755;1253;71129;-75
2023/02/06 00:40:06;;;;;;;33.10;14.50;;;;;;;2.11;99.43;103258.28;107738;1252;59647;-75
2023/02/06 00:42:33;;;;;;;31.10;14.30;;;;;;;2.09;99.28;103261.50;107598;1254;58758;-75
2023/02/06 00:45:00;;;;;;;30.20;14.50;;;;;;;2.07;99.55;103262.45;107684;1253;71684;-75
2023/02/06 00:47:27;;;;;;;29.60;14.90;;;;;;;2.06;99.59;103266.69;107670;1253;69779;-75
2023/02/06 00:49:54;;;;;;;29.70;14.70;;;;;;;2.04;99.47;103259.79;108301;1253;72002;-75
2023/02/06 00:52:21;;;;;;;29.40;15.20;;;;;;;2.05;99.30;103259.56;107794;1253;61327;-75
2023/02/06 00:54:48;;;;;;;36.50;15.80;;;;;;;2.08;99.62;103258.94;108459;1253;59769;-75
2023/02/06 00:57:15;;;;;;;31.10;15.10;;;;;;;2.09;99.12;103258.54;107745;1253;72817;-75
2023/02/06 00:59:42;;;;;;;32.80;15.20;;;;;;;2.09;99.25;103260.97;108253;1253;69650;-75
2023/02/06 01:02:10;;;;;;;36.40;14.80;;;;;;;2.10;99.02;103262.88;107910;1253;71563;-74
2023/02/06 01:04:36;;;;;;;29.70;14.40;;;;;;;2.10;98.98;103261.67;107659;1253;60966;-75
2023/02/06 01:07:03;;;;;;;32.90;15.70;;;;;;;2.11;99.02;103266.51;107672;1253;59430;-76
2023/02/06 01:09:30;;;;;;;31.00;15.30;;;;;;;2.11;99.12;103270.17;107909;1254;72984;-75
2023/02/06 01:11:57;;;;;;;33.40;15.30;;;;;;;2.12;98.83;103274.85;107741;1253;71172;-76
2023/02/06 01:14:24;;;;;;;34.30;15.50;;;;;;;2.12;98.94;103280.77;107446;1253;74017;-75
2023/02/06 01:16:52;;;;;;;33.90;16.20;;;;;;;2.14;98.79;103282.09;107510;1253;61056;-76
2023/02/06 01:19:18;;;;;;;33.70;15.60;;;;;;;2.17;98.81;103283.19;107725;1253;59627;-76
2023/02/06 01:21:46;;;;;;;34.00;15.50;;;;;;;2.20;98.73;103282.57;107742;1253;72399;-78
2023/02/06 01:24:13;;;;;;;30.70;15.20;;;;;;;2.21;98.78;103283.57;107600;1253;70714;-76
2023/02/06 01:26:40;;;;;;;35.30;16.10;;;;;;;2.21;98.65;103288.48;107787;1253;71364;-76
2023/02/06 01:29:07;;;;;;;33.70;16.80;;;;;;;2.16;98.63;103285.52;107858;1253;60038;-75
2023/02/06 01:31:34;;;;;;;33.60;16.50;;;;;;;2.13;98.48;103288.58;107777;1253;59747;-74
2023/02/06 01:34:01;;;;;;;36.10;17.20;;;;;;;2.11;98.66;103286.39;107496;1254;71730;-74
2023/02/06 01:36:28;;;;;;;33.50;16.20;;;;;;;2.04;98.90;103283.34;107621;1253;71245;-74
2023/02/06 01:38:55;;;;;;;31.70;16.40;;;;;;;1.99;99.05;103279.15;107664;1253;72721;-75
2023/02/06 01:41:22;;;;;;;34.30;17.40;;;;;;;1.93;99.38;103278.98;107865;1254;59684;-75
2023/02/06 01:44:12;;;;;;;33.90;17.10;;;;;;;1.91;99.33;103278.71;109229;1253;60417;-75
2023/02/06 01:46:41;;;;;;;31.10;15.60;;;;;;;1.88;99.58;103276.39;108820;1252;73650;-75
2023/02/06 01:49:19;;;;;;;31.60;15.90;;;;;;;1.86;99.87;103270.38;108576;1253;69642;-75
2023/02/06 01:51:47;;;;;;;36.90;17.30;;;;;;;1.83;99.93;103269.40;108812;1254;72415;-75
2023/02/06 01:54:14;;;;;;;35.90;17.60;;;;;;;1.83;99.90;103270.98;107988;1253;59945;-76
2023/02/06 01:56:51;;;;;;;36.70;17.10;;;;;;;1.83;99.97;103270.98;107762;1253;59612;-75
2023/02/06 01:59:19;;;;;;;39.60;17.70;;;;;;;1.85;99.99;103265.16;107698;1254;72812;-79
2023/02/06 02:01:46;;;;;;;33.80;17.10;;;;;;;1.87;99.99;103263.69;107351;1254;69704;-79
2023/02/06 02:04:19;;;;;;;39.00;18.80;;;;;;;1.88;100.00;103265.41;107621;1253;71584;-76
2023/02/06 02:06:57;;;;;;;39.50;19.10;;;;;;;1.88;99.96;103270.29;107802;1253;59719;-74
2023/02/06 02:09:24;;;;;;;33.20;17.50;;;;;;;1.89;99.97;103273.40;107589;1253;59656;-76
2023/02/06 02:11:52;;;;;;;37.90;19.40;;;;;;;1.88;100.00;103275.70;107827;1253;72852;-76
2023/02/06 02:14:19;;;;;;;37.20;18.50;;;;;;;1.87;99.95;103271.73;107897;1253;69660;-75
2023/02/06 02:16:49;;;;;;;37.30;19.20;;;;;;;1.88;99.94;103269.59;107784;1253;71130;-77
2023/02/06 02:19:53;;;;;;;36.90;19.00;;;;;;;1.91;99.99;103274.73;107857;1254;59631;-75
2023/02/06 02:22:50;;;;;;;38.30;19.20;;;;;;;1.91;100.00;103272.09;109228;1252;60826;-75
2023/02/06 02:25:19;;;;;;;37.50;19.30;;;;;;;1.91;99.98;103281.52;108874;1253;72802;-75
2023/02/06 02:27:56;;;;;;;41.90;19.90;;;;;;;1.91;100.00;103285.17;108542;1257;70236;-74
2023/02/06 02:31:03;;;;;;;38.30;19.40;;;;;;;1.93;99.95;103293.99;108300;1254;72511;-76
2023/02/06 02:33:29;;;;;;;40.30;19.70;;;;;;;1.96;99.89;103296.00;107613;1253;60539;-76
2023/02/06 02:36:24;;;;;;;38.00;19.10;;;;;;;1.98;99.94;103294.02;107483;1253;60020;-76
2023/02/06 02:39:06;;;;;;;32.70;16.80;;;;;;;2.00;99.88;103294.83;107700;1253;71709;-75
2023/02/06 02:41:43;;;;;;;34.60;18.50;;;;;;;1.93;99.96;103295.77;107406;1253;71373;-76
2023/02/06 02:44:18;;;;;;;33.20;17.70;;;;;;;1.87;99.77;103293.02;108154;1253;72738;-75
2023/02/06 02:46:50;;;;;;;33.30;16.70;;;;;;;1.80;99.74;103301.11;107570;1253;60550;-77
2023/02/06 02:49:23;;;;;;;30.40;16.10;;;;;;;1.74;99.93;103298.52;107559;1258;60478;-75
2023/02/06 02:51:50;;;;;;;28.30;15.90;;;;;;;1.69;99.75;103292.94;107689;1253;72356;-75
2023/02/06 02:54:18;;;;;;;27.60;15.50;;;;;;;1.63;99.69;103288.96;107638;1254;71441;-75
2023/02/06 02:56:45;;;;;;;26.10;15.10;;;;;;;1.56;99.76;103290.40;107446;1256;71476;-78
2023/02/06 02:59:24;;;;;;;26.50;14.70;;;;;;;1.52;99.67;103293.17;107657;1254;61096;-75
2023/02/06 03:02:02;;;;;;;29.60;16.40;;;;;;;1.50;99.74;103297.26;107731;1256;59214;-75
2023/02/06 03:04:36;;;;;;;32.10;16.40;;;;;;;1.51;99.60;103298.63;107349;1254;74125;-76
2023/02/06 03:07:05;;;;;;;30.60;16.90;;;;;;;1.51;99.85;103300.17;107545;1256;69397;-75
2023/02/06 03:10:01;;;;;;;27.80;15.50;;;;;;;1.52;99.67;103306.44;107592;1252;73154;-75
2023/02/06 03:12:51;;;;;;;32.00;16.10;;;;;;;1.51;99.73;103304.38;107431;1254;61242;-76
2023/02/06 03:15:33;;;;;;;27.80;15.40;;;;;;;1.49;99.73;103296.92;107545;1254;60310;-75
2023/02/06 03:18:22;;;;;;;27.90;15.30;;;;;;;1.48;99.72;103291.91;107821;1256;73825;-75
2023/02/06 03:20:49;;;;;;;25.70;14.70;;;;;;;1.47;99.51;103284.45;107834;1256;70090;-75
2023/02/06 03:23:27;;;;;;;25.40;14.50;;;;;;;1.45;98.94;103282.79;107458;1254;72753;-78
2023/02/06 03:25:57;;;;;;;26.30;15.10;;;;;;;1.45;98.96;103278.95;107656;1254;61002;-75
2023/02/06 03:28:33;;;;;;;25.50;15.00;;;;;;;1.44;98.90;103275.47;107814;1253;60546;-75
2023/02/06 03:31:04;;;;;;;25.00;15.20;;;;;;;1.46;98.75;103279.44;107494;1254;73569;-76
2023/02/06 03:33:41;;;;;;;29.50;16.80;;;;;;;1.47;99.15;103284.09;107505;1253;69737;-78
2023/02/06 03:36:15;;;;;;;28.80;14.80;;;;;;;1.45;98.78;103289.05;108126;1253;71125;-76
2023/02/06 03:38:45;;;;;;;26.60;15.30;;;;;;;1.40;98.70;103293.02;107473;1254;60467;-78
2023/02/06 03:41:14;;;;;;;26.10;15.10;;;;;;;1.36;98.53;103286.89;107728;1254;59659;-76
2023/02/06 03:43:43;;;;;;;26.50;15.70;;;;;;;1.31;98.50;103277.14;107756;1256;73883;-74
2023/02/06 03:46:13;;;;;;;27.00;14.70;;;;;;;1.28;98.25;103278.47;107674;1253;72651;-75
2023/02/06 03:48:44;;;;;;;27.30;15.20;;;;;;;1.22;98.36;103274.10;107244;1253;71273;-76
2023/02/06 03:51:17;;;;;;;27.90;15.80;;;;;;;1.19;98.12;103263.74;107605;1256;61320;-76
2023/02/06 03:53:46;;;;;;;27.10;14.70;;;;;;;1.13;97.94;103261.17;107714;1258;60492;-76
2023/02/06 03:56:29;;;;;;;29.90;15.60;;;;;;;1.06;97.92;103263.30;107691;1254;73635;-77
2023/02/06 03:58:56;;;;;;;30.60;15.30;;;;;;;0.98;97.89;103271.05;107764;1252;69511;-76
2023/02/06 04:01:23;;;;;;;25.00;14.60;;;;;;;0.93;97.79;103268.28;107691;1252;72726;-76
2023/02/06 04:03:51;;;;;;;24.40;13.80;;;;;;;0.85;97.82;103265.20;107674;1253;60448;-78
2023/02/06 04:06:18;;;;;;;26.60;14.90;;;;;;;0.77;98.06;103254.79;107399;1254;60444;-78
2023/02/06 04:08:45;;;;;;;24.70;14.60;;;;;;;0.74;98.31;103254.21;107747;1253;72437;-76
2023/02/06 04:11:12;;;;;;;24.50;14.10;;;;;;;0.72;98.37;103252.02;107962;1254;70504;-76
2023/02/06 04:13:39;;;;;;;22.90;13.90;;;;;;;0.71;98.40;103247.53;107626;1253;70812;-76
2023/02/06 04:16:06;;;;;;;26.10;14.20;;;;;;;0.67;98.40;103248.17;107471;1254;60436;-78
2023/02/06 04:18:33;;;;;;;26.70;14.40;;;;;;;0.60;98.18;103243.66;107278;1259;60354;-76
2023/02/06 04:21:06;;;;;;;25.50;13.60;;;;;;;0.49;98.65;103245.23;107555;1254;73568;-76
2023/02/06 04:23:33;;;;;;;23.90;12.70;;;;;;;0.40;98.80;103247.94;107772;1257;70165;-77
2023/02/06 04:26:00;;;;;;;22.00;12.90;;;;;;;0.31;98.89;103251.70;107413;1254;73872;-78
2023/02/06 04:28:27;;;;;;;23.00;12.30;;;;;;;0.25;99.25;103246.65;107778;1255;60489;-75
2023/02/06 04:30:54;;;;;;;21.80;12.20;;;;;;;0.21;99.50;103241.53;107633;1254;60899;-77
2023/02/06 04:33:21;;;;;;;24.00;12.50;;;;;;;0.20;99.66;103231.48;107757;1254;74249;-75
2023/02/06 04:35:49;;;;;;;24.60;13.30;;;;;;;0.19;99.69;103235.33;107691;1252;70631;-78
2023/02/06 04:38:16;;;;;;;28.10;14.30;;;;;;;0.19;99.68;103241.23;107446;1255;71353;-77
2023/02/06 04:40:43;;;;;;;26.70;14.40;;;;;;;0.17;99.91;103237.65;107777;1254;60416;-76
2023/02/06 04:43:11;;;;;;;29.30;14.10;;;;;;;0.15;99.96;103238.75;107735;1253;60326;-76
2023/02/06 04:45:38;;;;;;;26.30;13.10;;;;;;;0.11;100.00;103242.18;107496;1253;72382;-75
2023/02/06 04:48:04;;;;;;;29.30;15.00;;;;;;;0.08;100.00;103241.58;107557;1254;71205;-76
2023/02/06 04:50:33;;;;;;;31.60;14.90;;;;;;;0.06;100.00;103237.96;107521;1255;72505;-76
2023/02/06 04:53:00;;;;;;;25.50;13.80;;;;;;;0.03;100.00;103238.08;107823;1254;60436;-75
2023/02/06 04:55:27;;;;;;;25.40;13.60;;;;;;;-0.03;100.00;103239.61;107811;1253;60403;-76
2023/02/06 04:57:54;;;;;;;28.80;14.40;;;;;;;-0.08;100.00;103241.33;107622;1253;73261;-76
2023/02/06 05:00:21;;;;;;;25.80;14.60;;;;;;;-0.12;100.00;103233.59;107419;1257;69707;-78
2023/02/06 05:02:48;;;;;;;26.80;13.90;;;;;;;-0.13;100.00;103233.46;107615;1254;70556;-77
2023/02/06 05:05:15;;;;;;;30.30;14.10;;;;;;;-0.14;100.00;103238.86;107748;1254;61293;-75
2023/02/06 05:07:42;;;;;;;29.70;13.90;;;;;;;-0.14;100.00;103242.36;108050;1254;60341;-76
2023/02/06 05:10:10;;;;;;;28.10;13.20;;;;;;;-0.16;100.00;103244.16;107462;1256;73641;-77
2023/02/06 05:12:37;;;;;;;25.60;13.00;;;;;;;-0.18;100.00;103242.50;107585;1259;72079;-77
2023/02/06 05:15:05;;;;;;;30.00;13.50;;;;;;;-0.18;100.00;103241.97;107913;1253;72638;-75
2023/02/06 05:17:32;;;;;;;33.60;15.30;;;;;;;-0.19;100.00;103244.07;107804;1254;61884;-76
2023/02/06 05:19:59;;;;;;;32.80;15.70;;;;;;;-0.17;100.00;103238.30;107594;1253;60649;-80
2023/02/06 05:22:26;;;;;;;30.10;14.50;;;;;;;-0.18;100.00;103241.45;107688;1258;75394;-79
2023/02/06 05:24:53;;;;;;;27.40;13.60;;;;;;;-0.21;100.00;103250.73;108010;1254;71196;-76
2023/02/06 05:27:20;;;;;;;30.60;15.10;;;;;;;-0.26;100.00;103255.73;107854;1255;70466;-75
2023/02/06 05:29:48;;;;;;;27.60;14.10;;;;;;;-0.26;100.00;103248.27;107702;1254;60405;-76
2023/02/06 05:32:14;;;;;;;26.90;14.00;;;;;;;-0.25;100.00;103253.98;107391;1255;60126;-75
2023/02/06 05:34:42;;;;;;;26.00;13.20;;;;;;;-0.22;100.00;103258.24;107799;1256;72303;-74
2023/02/06 05:37:09;;;;;;;25.10;13.40;;;;;;;-0.18;100.00;103260.22;107759;1256;70864;-75
2023/02/06 05:39:36;;;;;;;29.00;13.80;;;;;;;-0.14;100.00;103254.87;108319;1255;72188;-76
2023/02/06 05:42:03;;;;;;;26.20;12.50;;;;;;;-0.12;100.00;103256.56;107962;1253;61949;-75
2023/02/06 05:44:30;;;;;;;25.10;12.60;;;;;;;-0.10;100.00;103255.81;107597;1258;61934;-77
2023/02/06 05:46:57;;;;;;;27.80;13.40;;;;;;;-0.11;100.00;103260.90;107788;1254;73595;-74
2023/02/06 05:49:25;;;;;;;28.70;14.00;;;;;;;-0.10;100.00;103267.11;107953;1254;70953;-75
2023/02/06 05:51:52;;;;;;;28.00;13.60;;;;;;;-0.08;100.00;103268.63;107760;1255;72371;-75
2023/02/06 05:54:19;;;;;;;25.80;13.60;;;;;;;-0.07;100.00;103269.83;107519;1254;60370;-75
2023/02/06 05:56:47;;;;;;;25.10;12.30;;;;;;;-0.07;100.00;103271.38;107717;1255;59809;-75
2023/02/06 05:59:14;;;;;;;28.20;13.30;;;;;;;-0.06;100.00;103272.58;108001;1254;72881;-75
2023/02/06 06:01:41;;;;;;;28.70;13.20;;;;;;;-0.06;100.00;103277.29;107889;1257;71086;-73
2023/02/06 06:04:08;;;;;;;27.90;13.30;;;;;;;-0.06;100.00;103280.41;107583;1252;72327;-78
2023/02/06 06:06:35;;;;;;;25.10;12.10;;;;;;;-0.05;100.00;103282.46;107584;1255;61226;-75
2023/02/06 06:09:02;;;;;;;25.90;12.90;;;;;;;-0.05;100.00;103280.20;107709;1254;61299;-75
2023/02/06 06:11:30;;;;;;;30.00;13.50;;;;;;;-0.05;100.00;103280.56;107823;1253;73686;-76
2023/02/06 06:13:57;;;;;;;25.20;12.10;;;;;;;-0.03;100.00;103285.89;107595;1254;71369;-75
2023/02/06 06:16:24;;;;;;;29.00;13.70;;;;;;;-0.04;100.00;103286.23;107630;1255;71303;-76
2023/02/06 06:18:51;;;;;;;25.30;13.50;;;;;;;0.00;100.00;103292.58;107694;1257;59928;-75
2023/02/06 06:21:18;;;;;;;30.10;13.90;;;;;;;0.02;100.00;103295.84;108137;1254;60405;-74
2023/02/06 06:23:45;;;;;;;29.20;14.30;;;;;;;0.04;100.00;103298.59;107820;1254;72628;-75
2023/02/06 06:26:12;;;;;;;27.20;14.00;;;;;;;0.07;100.00;103300.59;107621;1254;70187;-75
2023/02/06 06:28:40;;;;;;;28.80;14.50;;;;;;;0.11;100.00;103296.83;107503;1254;73616;-75
2023/02/06 06:31:11;;;;;;;28.50;14.30;;;;;;;0.16;100.00;103297.54;107995;1254;60848;-79
2023/02/06 06:33:38;;;;;;;26.50;12.20;;;;;;;0.18;100.00;103296.80;108308;1251;60885;-76
2023/02/06 06:36:07;;;;;;;27.00;13.50;;;;;;;0.17;100.00;103303.60;107561;1254;72684;-76
2023/02/06 06:38:34;;;;;;;28.90;13.20;;;;;;;0.17;100.00;103310.55;107435;1253;69782;-75
2023/02/06 06:41:01;;;;;;;31.20;13.90;;;;;;;0.15;100.00;103310.79;107586;1254;71760;-77
2023/02/06 06:43:28;;;;;;;30.70;14.10;;;;;;;0.13;100.00;103305.98;107978;1251;59609;-75
2023/02/06 06:45:56;;;;;;;29.00;14.70;;;;;;;0.10;100.00;103314.59;107562;1252;60997;-76
2023/02/06 06:48:23;;;;;;;34.90;15.60;;;;;;;0.11;100.00;103317.70;107478;1255;71783;-75
2023/02/06 06:50:50;;;;;;;28.80;13.90;;;;;;;0.11;99.98;103326.22;108080;1253;70366;-74
2023/02/06 06:53:17;;;;;;;30.50;13.50;;;;;;;0.13;99.98;103323.70;107757;1254;72361;-76
2023/02/06 06:55:48;;;;;;;30.50;13.80;;;;;;;0.17;99.94;103328.48;107713;1254;59683;-77
2023/02/06 06:58:16;;;;;;;29.30;13.60;;;;;;;0.18;99.91;103319.95;107625;1253;60451;-74
2023/02/06 07:00:43;;;;;;;28.70;13.90;;;;;;;0.18;99.73;103320.96;107311;1254;71926;-75
2023/02/06 07:03:11;;;;;;;30.10;14.90;;;;;;;0.20;99.77;103316.03;107325;1254;72113;-75
2023/02/06 07:05:38;;;;;;;30.80;15.30;;;;;;;0.24;99.80;103314.70;107143;1254;70372;-75
2023/02/06 07:08:05;;;;;;;31.10;15.30;;;;;;;0.27;99.68;103317.95;107179;1253;60549;-75
2023/02/06 07:10:32;;;;;;;30.40;14.20;;;;;;;0.33;99.96;103314.80;108745;1251;59105;-74
2023/02/06 07:12:59;;;;;;;31.40;14.90;;;;;;;0.41;99.84;103315.30;108165;1253;73588;-74
2023/02/06 07:15:26;;;;;;;32.60;15.60;;;;;;;0.48;99.68;103317.36;107477;1255;70917;-75
2023/02/06 07:17:52;;;;;;;32.70;16.30;;;;;;;0.55;99.81;103311.23;107410;1251;71114;-74
2023/02/06 07:20:19;;;;;;;33.60;15.40;;;;;;;0.63;99.78;103308.02;106965;1254;60661;-74
2023/02/06 07:22:48;;;;;;;37.00;15.50;;;;;;;0.68;99.54;103311.73;107456;1256;60303;-74
2023/02/06 07:25:16;;;;;;;31.70;15.30;;;;;;;0.73;99.23;103314.69;107436;1251;74549;-75
2023/02/06 07:27:43;;;;;;;36.60;15.40;;;;;;;0.77;98.84;103317.16;107740;1253;71161;-74
2023/02/06 07:30:11;;;;;;;29.90;13.90;;;;;;;0.79;98.48;103325.14;107165;1257;72482;-77
2023/02/06 07:32:38;;;;;;;28.90;14.30;;;;;;;0.77;98.16;103324.84;107203;1257;60441;-75
2023/02/06 07:35:05;;;;;;;25.60;13.50;;;;;;;0.71;97.73;103329.38;108719;1253;60032;-75
2023/02/06 07:37:32;;;;;;;32.90;14.10;;;;;;;0.69;97.64;103330.14;108001;1253;72659;-76
2023/02/06 07:39:59;;;;;;;27.70;13.40;;;;;;;0.67;97.50;103330.88;108104;1254;69892;-76
2023/02/06 07:42:26;;;;;;;33.00;15.20;;;;;;;0.62;97.37;103337.84;108191;1254;73751;-76
2023/02/06 07:44:53;;;;;;;34.90;14.60;;;;;;;0.62;97.40;103334.17;108191;1253;60440;-75
2023/02/06 07:47:20;;;;;;;31.30;13.90;;;;;;;0.67;97.49;103334.20;108148;1254;60438;-76
2023/02/06 07:49:47;;;;;;;24.90;11.80;;;;;;;0.73;97.59;103336.09;108232;1253;72465;-75
2023/02/06 07:52:14;;;;;;;25.20;12.80;;;;;;;0.73;96.98;103342.02;108004;1253;69689;-75
2023/02/06 07:54:41;;;;;;;29.20;13.50;;;;;;;0.72;96.95;103341.03;108239;1254;71153;-75
2023/02/06 07:57:08;;;;;;;32.00;15.20;;;;;;;0.74;96.73;103340.27;108035;1253;60475;-75
2023/02/06 07:59:34;;;;;;;25.40;12.40;;;;;;;0.78;96.64;103336.48;108366;1254;59458;-73
2023/02/06 08:02:02;;;;;;;24.20;11.10;;;;;;;0.84;96.54;103337.53;108265;1253;73972;-74
2023/02/06 08:04:34;;;;;;;25.50;12.20;;;;;;;0.86;96.30;103339.21;107519;1254;70732;-75
2023/02/06 08:07:02;;;;;;;23.00;11.90;;;;;;;0.88;95.86;103338.96;107477;1254;71163;-74
2023/02/06 08:09:30;;;;;;;24.80;12.20;;;;;;;0.91;95.96;103347.27;107449;1253;60390;-74
2023/02/06 08:11:57;;;;;;;22.90;12.20;;;;;;;0.97;95.89;103347.39;107405;1254;60523;-74
2023/02/06 08:14:24;;;;;;;22.70;11.30;;;;;;;1.06;96.11;103342.45;107564;1254;73897;-74
2023/02/06 08:16:51;;;;;;;27.90;12.50;;;;;;;1.09;95.72;103338.84;107192;1254;70030;-75
2023/02/06 08:19:19;;;;;;;27.00;14.10;;;;;;;1.06;94.89;103337.55;107656;1254;72862;-75
2023/02/06 08:21:46;;;;;;;27.30;14.10;;;;;;;1.07;94.93;103338.21;107514;1253;60923;-74
2023/02/06 08:24:13;;;;;;;27.40;14.10;;;;;;;1.12;95.12;103339.30;107398;1252;61825;-75
2023/02/06 08:26:40;;;;;;;29.10;13.10;;;;;;;1.12;94.65;103338.41;107402;1254;72384;-74
2023/02/06 08:29:07;;;;;;;23.60;12.70;;;;;;;1.10;94.35;103338.10;107439;1254;70848;-74
2023/02/06 08:31:37;;;;;;;26.30;13.60;;;;;;;1.08;94.57;103330.00;107371;1254;71383;-73
2023/02/06 08:34:05;;;;;;;31.60;15.60;;;;;;;1.08;94.75;103326.16;107458;1253;60959;-75
2023/02/06 08:36:33;;;;;;;32.70;15.50;;;;;;;1.06;94.63;103324.13;107508;1253;60306;-74
2023/02/06 08:39:00;;;;;;;30.50;15.80;;;;;;;1.13;94.95;103327.05;107773;1253;73815;-74
2023/02/06 08:41:30;;;;;;;41.50;14.40;;;;;;;1.24;94.94;103324.08;107246;1253;69794;-75
2023/02/06 08:43:59;;;;;;;29.70;14.60;;;;;;;1.27;94.49;103324.85;107559;1253;72687;-74
2023/02/06 08:46:28;;;;;;;34.80;14.90;;;;;;;1.33;94.62;103329.52;107835;1254;61211;-75
2023/02/06 08:48:56;;;;;;;32.70;14.80;;;;;;;1.37;94.89;103325.04;107383;1253;60434;-74
2023/02/06 08:51:26;;;;;;;35.40;15.00;;;;;;;1.49;94.97;103318.40;107405;1254;75064;-74
2023/02/06 08:54:02;;;;;;;39.20;16.70;;;;;;;1.61;94.83;103318.86;107336;1254;70046;-74
2023/02/06 08:56:30;;;;;;;35.00;15.90;;;;;;;1.70;94.04;103322.73;107493;1253;74163;-74
2023/02/06 08:58:58;;;;;;;30.80;15.40;;;;;;;1.85;94.07;103319.78;107696;1254;61305;-74
2023/02/06 09:01:27;;;;;;;31.70;15.10;;;;;;;2.05;94.04;103311.92;107392;1253;59108;-75
2023/02/06 09:03:55;;;;;;;30.10;14.20;;;;;;;2.19;93.04;103305.83;107463;1254;71629;-74
2023/02/06 09:06:24;;;;;;;28.30;12.90;;;;;;;2.31;92.81;103298.60;107554;1254;71732;-76
2023/02/06 09:08:52;;;;;;;24.40;10.90;;;;;;;2.40;92.10;103293.52;107121;1251;71472;-75
2023/02/06 09:11:21;;;;;;;27.80;12.50;;;;;;;2.49;91.47;103292.32;107390;1253;62360;-72
2023/02/06 09:13:49;;;;;;;31.80;13.20;;;;;;;2.62;91.24;103291.10;107432;1253;60409;-75
2023/02/06 09:16:18;;;;;;;28.70;12.10;;;;;;;2.72;90.30;103291.77;107683;1253;74354;-74
2023/02/06 09:18:47;;;;;;;28.60;12.50;;;;;;;2.80;89.60;103289.88;107369;1254;72022;-74
2023/02/06 09:21:21;;;;;;;23.50;10.70;;;;;;;2.89;89.49;103291.28;107496;1254;71456;-75
2023/02/06 09:23:53;;;;;;;27.50;12.50;;;;;;;2.89;88.52;103292.54;107188;1253;61238;-76
2023/02/06 09:26:23;;;;;;;29.00;12.20;;;;;;;2.91;88.46;103277.27;107502;1252;61076;-75
2023/02/06 09:28:56;;;;;;;28.80;13.00;;;;;;;3.00;88.88;103281.09;107289;1253;74673;-74
2023/02/06 09:31:25;;;;;;;24.70;10.50;;;;;;;3.09;88.19;103288.40;107325;1256;70989;-74
2023/02/06 09:33:53;;;;;;;24.60;10.70;;;;;;;3.20;87.74;103284.45;107581;1253;71764;-74
2023/02/06 09:36:20;;;;;;;26.10;11.10;;;;;;;3.34;87.28;103283.69;107469;1255;60007;-74
2023/02/06 09:38:52;;;;;;;25.80;11.10;;;;;;;3.55;87.67;103287.00;107049;1252;60514;-76
2023/02/06 09:41:44;;;;;;;26.60;9.80;;;;;;;3.85;87.90;103285.54;107059;1253;72334;-76
2023/02/06 09:44:26;;;;;;;25.90;9.90;;;;;;;4.21;87.07;103284.13;107271;1253;69374;-75
2023/02/06 09:47:05;;;;;;;21.70;9.30;;;;;;;4.53;85.53;103282.66;107321;1253;71425;-76
2023/02/06 09:49:41;;;;;;;23.30;9.40;;;;;;;4.73;82.98;103280.48;107395;1254;60931;-75
2023/02/06 09:52:26;;;;;;;24.80;8.80;;;;;;;4.90;83.32;103285.98;107503;1253;60335;-75
2023/02/06 09:55:24;;;;;;;21.50;8.80;;;;;;;5.02;82.43;103284.37;107195;1254;73593;-76
2023/02/06 09:58:42;;;;;;;18.80;9.20;;;;;;;5.16;82.82;103281.92;107251;1253;69675;-79
2023/02/06 10:01:36;;;;;;;16.60;6.60;;;;;;;5.31;80.20;103284.50;107973;1253;73562;-77
2023/02/06 10:04:32;;;;;;;14.20;5.50;;;;;;;5.27;78.24;103282.25;107092;1253;60415;-76
2023/02/06 10:07:18;;;;;;;14.10;4.90;;;;;;;5.13;76.42;103275.55;107409;1253;60546;-76
2023/02/06 10:10:10;;;;;;;14.50;5.20;;;;;;;5.15;77.14;103280.73;107290;1254;72351;-76
2023/02/06 10:12:41;;;;;;;14.90;5.50;;;;;;;5.13;76.83;103283.62;107492;1254;69303;-74
2023/02/06 10:15:23;;;;;;;14.30;5.40;;;;;;;5.25;77.74;103277.27;107149;1253;73670;-75
2023/02/06 10:17:57;;;;;;;13.60;5.70;;;;;;;5.37;76.90;103273.35;106909;1253;61541;-81
2023/02/06 10:20:38;;;;;;;14.60;5.70;;;;;;;5.50;77.64;103267.20;107309;1253;60372;-75
2023/02/06 10:23:31;;;;;;;12.80;5.40;;;;;;;5.71;77.25;103267.02;107350;1253;72614;-76
2023/02/06 10:26:03;;;;;;;13.80;4.80;;;;;;;5.75;75.31;103261.17;107566;1252;70990;-76
2023/02/06 10:28:32;;;;;;;12.00;4.70;;;;;;;5.87;75.63;103258.11;107697;1251;72687;-75
2023/02/06 10:31:16;;;;;;;13.90;5.10;;;;;;;5.85;73.70;103261.93;107286;1253;60424;-76
2023/02/06 10:34:05;;;;;;;15.50;5.90;;;;;;;5.80;74.51;103262.89;107339;1253;60588;-76
2023/02/06 10:36:54;;;;;;;13.50;5.50;;;;;;;5.82;74.90;103262.95;107446;1253;72337;-77
2023/02/06 10:39:45;;;;;;;15.20;6.40;;;;;;;5.83;75.23;103254.27;107040;1256;70060;-75
2023/02/06 10:42:45;;;;;;;11.80;5.50;;;;;;;5.98;76.33;103254.92;107272;1253;71819;-75
2023/02/06 10:45:21;;;;;;;16.70;6.70;;;;;;;6.17;76.29;103252.13;107324;1252;60939;-75
2023/02/06 10:47:53;;;;;;;14.80;6.20;;;;;;;6.35;75.74;103263.68;107249;1254;306964;-74
2023/02/06 10:50:31;;;;;;;14.80;7.20;;;;;;;6.46;75.29;103261.28;107212;1251;73924;-76
2023/02/06 10:53:05;;;;;;;14.30;7.60;;;;;;;6.57;74.37;103260.90;107058;1253;71161;-75
2023/02/06 10:55:46;;;;;;;16.30;7.40;;;;;;;6.57;73.90;103264.05;107442;1252;73241;-76
2023/02/06 10:58:34;;;;;;;15.20;7.30;;;;;;;6.53;73.55;103265.85;107414;1253;60347;-76
2023/02/06 11:01:03;;;;;;;16.10;7.00;;;;;;;6.44;73.51;103265.09;107337;1253;61047;-75
2023/02/06 11:03:53;;;;;;;16.30;7.80;;;;;;;6.32;73.51;103260.48;107374;1253;72748;-76
2023/02/06 11:06:21;;;;;;;15.60;7.50;;;;;;;6.37;74.41;103260.91;107087;1251;70859;-73
2023/02/06 11:08:48;;;;;;;15.50;8.40;;;;;;;6.37;73.39;103252.13;107347;1254;72358;-75
2023/02/06 11:11:19;;;;;;;18.10;7.50;;;;;;;6.36;73.64;103251.83;107014;1251;61758;-75
2023/02/06 11:13:52;;;;;;;16.60;7.50;;;;;;;6.39;73.25;103248.49;107188;1253;60713;-76
2023/02/06 11:16:25;;;;;;;14.80;7.60;;;;;;;6.44;73.41;103246.61;107313;1254;74071;-75
2023/02/06 11:18:55;;;;;;;14.90;7.90;;;;;;;6.53;73.46;103249.45;107527;1253;70195;-73
2023/02/06 11:21:40;;;;;;;12.40;7.00;;;;;;;6.60;73.30;103249.63;107308;1254;73375;-74
2023/02/06 11:24:13;;;;;;;16.10;7.30;;;;;;;6.53;71.87;103256.36;106952;1253;61217;-75